sensor_id;sensor_type;location;lat;lon;timestamp;pressure;altitude;pressure_sealevel;temperature;humidity
47530;BME280;33272;51.922;7.730;2022-09-01T00:01:45;101367.31;;;15.57;66.40
47530;BME280;33272;51.922;7.730;2022-09-01T00:04:17;101366.16;;;15.52;66.31
47530;BME280;33272;51.922;7.730;2022-09-01T00:06:45;101359.78;;;15.47;66.51
47530;BME280;33272;51.922;7.730;2022-09-01T00:09:15;101367.25;;;15.42;66.80
47530;BME280;33272;51.922;7.730;2022-09-01T00:11:46;101365.03;;;15.35;67.18
47530;BME280;33272;51.922;7.730;2022-09-01T00:14:14;101357.91;;;15.31;67.11
47530;BME280;33272;51.922;7.730;2022-09-01T00:16:41;101356.81;;;15.27;67.21
47530;BME280;33272;51.922;7.730;2022-09-01T00:19:08;101357.63;;;15.26;67.32
47530;BME280;33272;51.922;7.730;2022-09-01T00:21:39;101360.97;;;15.25;67.49
47530;BME280;33272;51.922;7.730;2022-09-01T00:24:07;101359.13;;;15.23;67.83
47530;BME280;33272;51.922;7.730;2022-09-01T00:26:34;101364.97;;;15.20;67.51
47530;BME280;33272;51.922;7.730;2022-09-01T00:29:04;101365.66;;;15.18;67.88
47530;BME280;33272;51.922;7.730;2022-09-01T00:31:32;101366.31;;;15.15;67.93
47530;BME280;33272;51.922;7.730;2022-09-01T00:33:59;101372.97;;;15.12;68.27
47530;BME280;33272;51.922;7.730;2022-09-01T00:36:27;101371.09;;;15.09;68.41
47530;BME280;33272;51.922;7.730;2022-09-01T00:38:54;101370.09;;;15.07;68.17
47530;BME280;33272;51.922;7.730;2022-09-01T00:41:25;101368.31;;;15.06;68.20
47530;BME280;33272;51.922;7.730;2022-09-01T00:43:55;101376.84;;;15.05;68.79
47530;BME280;33272;51.922;7.730;2022-09-01T00:46:27;101368.00;;;15.01;68.84
47530;BME280;33272;51.922;7.730;2022-09-01T00:48:58;101366.91;;;14.98;68.57
47530;BME280;33272;51.922;7.730;2022-09-01T00:51:28;101365.72;;;14.93;69.12
47530;BME280;33272;51.922;7.730;2022-09-01T00:53:56;101357.69;;;14.88;68.69
47530;BME280;33272;51.922;7.730;2022-09-01T00:56:24;101361.50;;;14.81;69.51
47530;BME280;33272;51.922;7.730;2022-09-01T00:58:52;101368.16;;;14.78;69.78
47530;BME280;33272;51.922;7.730;2022-09-01T01:01:19;101359.25;;;14.73;69.89
47530;BME280;33272;51.922;7.730;2022-09-01T01:03:49;101368.31;;;14.68;70.16
47530;BME280;33272;51.922;7.730;2022-09-01T01:06:16;101363.56;;;14.60;69.89
47530;BME280;33272;51.922;7.730;2022-09-01T01:08:46;101361.47;;;14.55;70.77
47530;BME280;33272;51.922;7.730;2022-09-01T01:11:26;101363.38;;;14.46;70.61
47530;BME280;33272;51.922;7.730;2022-09-01T01:13:57;101363.84;;;14.40;71.20
47530;BME280;33272;51.922;7.730;2022-09-01T01:16:26;101362.53;;;14.33;71.22
47530;BME280;33272;51.922;7.730;2022-09-01T01:18:55;101362.91;;;14.26;71.47
47530;BME280;33272;51.922;7.730;2022-09-01T01:21:28;101371.09;;;14.21;71.86
47530;BME280;33272;51.922;7.730;2022-09-01T01:24:23;101362.84;;;14.13;72.21
47530;BME280;33272;51.922;7.730;2022-09-01T01:26:51;101358.97;;;14.06;72.41
47530;BME280;33272;51.922;7.730;2022-09-01T01:29:20;101368.03;;;14.01;72.62
47530;BME280;33272;51.922;7.730;2022-09-01T01:31:47;101366.91;;;13.98;73.12
47530;BME280;33272;51.922;7.730;2022-09-01T01:34:16;101363.34;;;13.96;73.16
47530;BME280;33272;51.922;7.730;2022-09-01T01:36:44;101361.44;;;13.93;72.90
47530;BME280;33272;51.922;7.730;2022-09-01T01:39:15;101364.00;;;13.93;73.75
47530;BME280;33272;51.922;7.730;2022-09-01T01:41:45;101358.75;;;13.91;73.86
47530;BME280;33272;51.922;7.730;2022-09-01T01:44:16;101364.81;;;13.92;73.63
47530;BME280;33272;51.922;7.730;2022-09-01T01:46:47;101357.00;;;13.90;73.95
47530;BME280;33272;51.922;7.730;2022-09-01T01:49:19;101361.91;;;13.87;74.00
47530;BME280;33272;51.922;7.730;2022-09-01T01:51:48;101362.59;;;13.85;74.08
47530;BME280;33272;51.922;7.730;2022-09-01T01:54:20;101364.16;;;13.83;74.16
47530;BME280;33272;51.922;7.730;2022-09-01T01:56:50;101370.88;;;13.81;74.30
47530;BME280;33272;51.922;7.730;2022-09-01T01:59:17;101373.25;;;13.78;74.23
47530;BME280;33272;51.922;7.730;2022-09-01T02:01:45;101377.25;;;13.74;74.42
47530;BME280;33272;51.922;7.730;2022-09-01T02:04:17;101375.38;;;13.72;74.84
47530;BME280;33272;51.922;7.730;2022-09-01T02:06:47;101370.78;;;13.67;75.41
47530;BME280;33272;51.922;7.730;2022-09-01T02:09:17;101378.97;;;13.62;75.46
47530;BME280;33272;51.922;7.730;2022-09-01T02:11:45;101375.25;;;13.58;75.46
47530;BME280;33272;51.922;7.730;2022-09-01T02:14:14;101376.94;;;13.58;75.48
47530;BME280;33272;51.922;7.730;2022-09-01T02:16:45;101374.06;;;13.53;76.24
47530;BME280;33272;51.922;7.730;2022-09-01T02:19:12;101371.91;;;13.48;76.15
47530;BME280;33272;51.922;7.730;2022-09-01T02:21:39;101371.59;;;13.43;76.14
47530;BME280;33272;51.922;7.730;2022-09-01T02:24:19;101370.22;;;13.36;76.64
47530;BME280;33272;51.922;7.730;2022-09-01T02:26:46;101364.78;;;13.32;77.23
47530;BME280;33272;51.922;7.730;2022-09-01T02:29:18;101367.22;;;13.30;77.19
47530;BME280;33272;51.922;7.730;2022-09-01T02:31:49;101363.53;;;13.27;77.25
47530;BME280;33272;51.922;7.730;2022-09-01T02:34:18;101363.19;;;13.22;77.24
47530;BME280;33272;51.922;7.730;2022-09-01T02:36:48;101370.53;;;13.17;77.95
47530;BME280;33272;51.922;7.730;2022-09-01T02:39:20;101366.75;;;13.12;78.09
47530;BME280;33272;51.922;7.730;2022-09-01T02:41:48;101368.97;;;13.08;77.95
47530;BME280;33272;51.922;7.730;2022-09-01T02:44:16;101372.00;;;13.02;78.66
47530;BME280;33272;51.922;7.730;2022-09-01T02:46:46;101368.19;;;12.97;78.67
47530;BME280;33272;51.922;7.730;2022-09-01T02:49:18;101367.94;;;12.94;78.72
47530;BME280;33272;51.922;7.730;2022-09-01T02:51:49;101366.19;;;12.93;78.99
47530;BME280;33272;51.922;7.730;2022-09-01T02:54:20;101364.59;;;12.95;79.07
47530;BME280;33272;51.922;7.730;2022-09-01T02:56:49;101362.03;;;12.95;79.10
47530;BME280;33272;51.922;7.730;2022-09-01T02:59:24;101366.50;;;12.97;79.43
47530;BME280;33272;51.922;7.730;2022-09-01T03:01:53;101359.16;;;13.02;78.88
47530;BME280;33272;51.922;7.730;2022-09-01T03:04:21;101362.94;;;13.07;79.14
47530;BME280;33272;51.922;7.730;2022-09-01T03:06:49;101364.84;;;13.10;79.35
47530;BME280;33272;51.922;7.730;2022-09-01T03:09:20;101365.88;;;13.12;78.79
47530;BME280;33272;51.922;7.730;2022-09-01T03:11:51;101366.84;;;13.14;78.92
47530;BME280;33272;51.922;7.730;2022-09-01T03:14:21;101363.38;;;13.13;79.22
47530;BME280;33272;51.922;7.730;2022-09-01T03:16:49;101365.97;;;13.13;79.24
47530;BME280;33272;51.922;7.730;2022-09-01T03:19:16;101372.88;;;13.14;78.98
47530;BME280;33272;51.922;7.730;2022-09-01T03:21:44;101370.31;;;13.14;79.55
47530;BME280;33272;51.922;7.730;2022-09-01T03:24:15;101368.53;;;13.13;79.20
47530;BME280;33272;51.922;7.730;2022-09-01T03:26:43;101365.06;;;13.13;79.45
47530;BME280;33272;51.922;7.730;2022-09-01T03:29:11;101373.66;;;13.13;79.73
47530;BME280;33272;51.922;7.730;2022-09-01T03:31:40;101371.09;;;13.13;79.77
47530;BME280;33272;51.922;7.730;2022-09-01T03:34:08;101367.50;;;13.11;79.98
47530;BME280;33272;51.922;7.730;2022-09-01T03:36:37;101369.88;;;13.08;79.80
47530;BME280;33272;51.922;7.730;2022-09-01T03:39:15;101366.97;;;13.04;80.16
47530;BME280;33272;51.922;7.730;2022-09-01T03:41:43;101367.16;;;12.95;80.79
47530;BME280;33272;51.922;7.730;2022-09-01T03:44:11;101359.78;;;12.88;80.88
47530;BME280;33272;51.922;7.730;2022-09-01T03:46:40;101357.56;;;12.81;81.33
47530;BME280;33272;51.922;7.730;2022-09-01T03:49:08;101358.41;;;12.69;81.68
47530;BME280;33272;51.922;7.730;2022-09-01T03:51:42;101363.97;;;12.64;81.60
47530;BME280;33272;51.922;7.730;2022-09-01T03:54:10;101359.81;;;12.54;81.73
47530;BME280;33272;51.922;7.730;2022-09-01T03:56:37;101360.13;;;12.47;82.29
47530;BME280;33272;51.922;7.730;2022-09-01T03:59:06;101362.13;;;12.39;82.68
47530;BME280;33272;51.922;7.730;2022-09-01T04:01:33;101358.84;;;12.30;82.97
47530;BME280;33272;51.922;7.730;2022-09-01T04:04:10;101363.28;;;12.21;83.05
47530;BME280;33272;51.922;7.730;2022-09-01T04:06:39;101360.22;;;12.15;83.76
47530;BME280;33272;51.922;7.730;2022-09-01T04:09:06;101365.66;;;12.08;83.92
47530;BME280;33272;51.922;7.730;2022-09-01T04:11:36;101364.41;;;12.02;84.50
47530;BME280;33272;51.922;7.730;2022-09-01T04:14:05;101362.25;;;11.97;84.59
47530;BME280;33272;51.922;7.730;2022-09-01T04:16:33;101362.66;;;11.91;84.88
47530;BME280;33272;51.922;7.730;2022-09-01T04:19:22;101365.91;;;11.89;85.48
47530;BME280;33272;51.922;7.730;2022-09-01T04:21:53;101363.84;;;11.85;85.54
47530;BME280;33272;51.922;7.730;2022-09-01T04:24:22;101366.28;;;11.83;85.60
47530;BME280;33272;51.922;7.730;2022-09-01T04:26:50;101360.91;;;11.80;85.92
47530;BME280;33272;51.922;7.730;2022-09-01T04:29:20;101368.22;;;11.75;85.89
47530;BME280;33272;51.922;7.730;2022-09-01T04:31:52;101366.97;;;11.70;86.15
47530;BME280;33272;51.922;7.730;2022-09-01T04:34:21;101365.06;;;11.68;86.40
47530;BME280;33272;51.922;7.730;2022-09-01T04:36:49;101363.03;;;11.64;86.58
47530;BME280;33272;51.922;7.730;2022-09-01T04:39:22;101360.09;;;11.59;86.91
47530;BME280;33272;51.922;7.730;2022-09-01T04:41:49;101366.63;;;11.55;87.07
47530;BME280;33272;51.922;7.730;2022-09-01T04:44:17;101364.72;;;11.53;87.59
47530;BME280;33272;51.922;7.730;2022-09-01T04:46:45;101363.72;;;11.51;87.70
47530;BME280;33272;51.922;7.730;2022-09-01T04:49:14;101363.59;;;11.49;87.49
47530;BME280;33272;51.922;7.730;2022-09-01T04:51:49;101365.91;;;11.46;88.03
47530;BME280;33272;51.922;7.730;2022-09-01T04:54:17;101359.75;;;11.44;88.16
47530;BME280;33272;51.922;7.730;2022-09-01T04:56:47;101358.84;;;11.44;88.40
47530;BME280;33272;51.922;7.730;2022-09-01T04:59:17;101361.31;;;11.42;88.50
47530;BME280;33272;51.922;7.730;2022-09-01T05:01:46;101354.38;;;11.41;88.52
47530;BME280;33272;51.922;7.730;2022-09-01T05:04:17;101358.59;;;11.41;88.71
47530;BME280;33272;51.922;7.730;2022-09-01T05:06:51;101353.63;;;11.42;88.79
47530;BME280;33272;51.922;7.730;2022-09-01T05:09:20;101351.16;;;11.44;89.36
47530;BME280;33272;51.922;7.730;2022-09-01T05:11:49;101353.09;;;11.46;89.47
47530;BME280;33272;51.922;7.730;2022-09-01T05:14:17;101356.78;;;11.50;90.07
47530;BME280;33272;51.922;7.730;2022-09-01T05:16:46;101359.72;;;11.54;90.16
47530;BME280;33272;51.922;7.730;2022-09-01T05:19:14;101359.31;;;11.60;90.15
47530;BME280;33272;51.922;7.730;2022-09-01T05:21:43;101364.59;;;11.83;90.77
47530;BME280;33272;51.922;7.730;2022-09-01T05:24:14;101354.78;;;12.22;90.28
47530;BME280;33272;51.922;7.730;2022-09-01T05:26:43;101361.72;;;12.57;89.69
47530;BME280;33272;51.922;7.730;2022-09-01T05:29:13;101356.19;;;12.86;88.02
47530;BME280;33272;51.922;7.730;2022-09-01T05:31:42;101357.09;;;12.98;87.17
47530;BME280;33272;51.922;7.730;2022-09-01T05:34:10;101357.78;;;13.07;86.84
47530;BME280;33272;51.922;7.730;2022-09-01T05:36:41;101363.63;;;13.16;86.72
47530;BME280;33272;51.922;7.730;2022-09-01T05:39:09;101361.75;;;13.26;86.67
47530;BME280;33272;51.922;7.730;2022-09-01T05:41:38;101363.75;;;13.30;86.18
47530;BME280;33272;51.922;7.730;2022-09-01T05:44:06;101365.09;;;13.36;86.35
47530;BME280;33272;51.922;7.730;2022-09-01T05:46:36;101366.88;;;13.49;86.49
47530;BME280;33272;51.922;7.730;2022-09-01T05:49:05;101370.66;;;13.78;86.58
47530;BME280;33272;51.922;7.730;2022-09-01T05:51:34;101376.03;;;14.18;85.44
47530;BME280;33272;51.922;7.730;2022-09-01T05:54:02;101371.59;;;14.65;84.50
47530;BME280;33272;51.922;7.730;2022-09-01T05:56:32;101368.41;;;15.07;83.04
47530;BME280;33272;51.922;7.730;2022-09-01T05:59:01;101372.00;;;15.49;81.35
47530;BME280;33272;51.922;7.730;2022-09-01T06:01:29;101374.75;;;15.79;80.38
47530;BME280;33272;51.922;7.730;2022-09-01T06:04:00;101369.75;;;16.09;79.27
47530;BME280;33272;51.922;7.730;2022-09-01T06:06:36;101369.81;;;16.38;78.55
47530;BME280;33272;51.922;7.730;2022-09-01T06:09:05;101370.13;;;16.58;77.93
47530;BME280;33272;51.922;7.730;2022-09-01T06:11:32;101373.72;;;16.75;77.19
47530;BME280;33272;51.922;7.730;2022-09-01T06:14:01;101374.94;;;16.95;76.46
47530;BME280;33272;51.922;7.730;2022-09-01T06:16:29;101370.81;;;17.13;75.75
47530;BME280;33272;51.922;7.730;2022-09-01T06:18:56;101372.31;;;17.24;75.33
47530;BME280;33272;51.922;7.730;2022-09-01T06:21:25;101370.47;;;17.22;75.03
47530;BME280;33272;51.922;7.730;2022-09-01T06:23:56;101370.00;;;17.14;75.30
47530;BME280;33272;51.922;7.730;2022-09-01T06:26:27;101375.81;;;17.10;75.50
47530;BME280;33272;51.922;7.730;2022-09-01T06:28:56;101366.88;;;17.05;75.48
47530;BME280;33272;51.922;7.730;2022-09-01T06:31:29;101374.56;;;17.03;75.15
47530;BME280;33272;51.922;7.730;2022-09-01T06:34:01;101370.28;;;17.04;75.56
47530;BME280;33272;51.922;7.730;2022-09-01T06:36:29;101374.56;;;17.03;75.52
47530;BME280;33272;51.922;7.730;2022-09-01T06:38:57;101376.53;;;17.07;75.57
47530;BME280;33272;51.922;7.730;2022-09-01T06:41:26;101377.59;;;17.11;75.51
47530;BME280;33272;51.922;7.730;2022-09-01T06:43:54;101381.34;;;17.16;75.45
47530;BME280;33272;51.922;7.730;2022-09-01T06:46:21;101381.78;;;17.24;75.29
47530;BME280;33272;51.922;7.730;2022-09-01T06:48:54;101385.00;;;17.34;75.11
47530;BME280;33272;51.922;7.730;2022-09-01T06:51:25;101383.63;;;17.41;74.77
47530;BME280;33272;51.922;7.730;2022-09-01T06:53:54;101381.56;;;17.50;74.53
47530;BME280;33272;51.922;7.730;2022-09-01T06:56:26;101389.09;;;17.62;74.50
47530;BME280;33272;51.922;7.730;2022-09-01T06:58:56;101387.13;;;17.73;73.73
47530;BME280;33272;51.922;7.730;2022-09-01T07:01:24;101391.22;;;17.84;73.41
47530;BME280;33272;51.922;7.730;2022-09-01T07:03:54;101397.06;;;17.96;73.42
47530;BME280;33272;51.922;7.730;2022-09-01T07:06:23;101398.63;;;18.09;73.15
47530;BME280;33272;51.922;7.730;2022-09-01T07:08:54;101402.72;;;18.20;72.62
47530;BME280;33272;51.922;7.730;2022-09-01T07:11:24;101400.84;;;18.34;72.44
47530;BME280;33272;51.922;7.730;2022-09-01T07:13:55;101400.53;;;18.44;72.26
47530;BME280;33272;51.922;7.730;2022-09-01T07:16:25;101400.84;;;18.50;71.57
47530;BME280;33272;51.922;7.730;2022-09-01T07:18:57;101401.25;;;18.58;69.79
47530;BME280;33272;51.922;7.730;2022-09-01T07:21:27;101400.09;;;18.69;70.91
47530;BME280;33272;51.922;7.730;2022-09-01T07:23:54;101403.44;;;18.83;70.48
47530;BME280;33272;51.922;7.730;2022-09-01T07:26:22;101398.63;;;18.91;70.56
47530;BME280;33272;51.922;7.730;2022-09-01T07:28:50;101396.50;;;19.00;70.29
47530;BME280;33272;51.922;7.730;2022-09-01T07:31:18;101396.75;;;19.05;69.65
47530;BME280;33272;51.922;7.730;2022-09-01T07:33:48;101386.69;;;19.11;69.38
47530;BME280;33272;51.922;7.730;2022-09-01T07:36:18;101392.91;;;19.14;69.56
47530;BME280;33272;51.922;7.730;2022-09-01T07:38:46;101395.72;;;19.19;68.84
47530;BME280;33272;51.922;7.730;2022-09-01T07:41:16;101391.88;;;19.29;68.53
47530;BME280;33272;51.922;7.730;2022-09-01T07:43:43;101392.47;;;19.41;68.24
47530;BME280;33272;51.922;7.730;2022-09-01T07:46:11;101392.09;;;19.51;68.37
47530;BME280;33272;51.922;7.730;2022-09-01T07:48:38;101388.41;;;19.64;67.96
47530;BME280;33272;51.922;7.730;2022-09-01T07:51:05;101385.38;;;19.73;67.61
47530;BME280;33272;51.922;7.730;2022-09-01T07:53:35;101388.53;;;19.85;66.99
47530;BME280;33272;51.922;7.730;2022-09-01T07:56:07;101396.78;;;19.94;66.11
47530;BME280;33272;51.922;7.730;2022-09-01T07:58:37;101397.88;;;19.99;66.82
47530;BME280;33272;51.922;7.730;2022-09-01T08:01:07;101395.44;;;20.02;66.20
47530;BME280;33272;51.922;7.730;2022-09-01T08:03:34;101399.19;;;20.09;66.26
47530;BME280;33272;51.922;7.730;2022-09-01T08:06:03;101400.22;;;20.12;65.87
47530;BME280;33272;51.922;7.730;2022-09-01T08:08:31;101393.44;;;20.16;65.66
47530;BME280;33272;51.922;7.730;2022-09-01T08:11:00;101393.88;;;20.25;65.32
47530;BME280;33272;51.922;7.730;2022-09-01T08:13:27;101392.56;;;20.35;65.27
47530;BME280;33272;51.922;7.730;2022-09-01T08:15:54;101396.59;;;20.48;65.10
47530;BME280;33272;51.922;7.730;2022-09-01T08:18:21;101401.69;;;20.64;64.82
47530;BME280;33272;51.922;7.730;2022-09-01T08:20:49;101401.34;;;20.76;64.06
47530;BME280;33272;51.922;7.730;2022-09-01T08:23:18;101404.34;;;20.85;63.72
47530;BME280;33272;51.922;7.730;2022-09-01T08:25:47;101398.56;;;20.92;63.60
47530;BME280;33272;51.922;7.730;2022-09-01T08:28:16;101397.22;;;21.02;63.29
47530;BME280;33272;51.922;7.730;2022-09-01T08:30:45;101399.34;;;21.11;62.76
47530;BME280;33272;51.922;7.730;2022-09-01T08:33:13;101391.69;;;21.15;62.91
47530;BME280;33272;51.922;7.730;2022-09-01T08:35:45;101397.25;;;21.23;62.04
47530;BME280;33272;51.922;7.730;2022-09-01T08:38:12;101398.22;;;21.25;62.07
47530;BME280;33272;51.922;7.730;2022-09-01T08:40:40;101402.75;;;21.30;61.65
47530;BME280;33272;51.922;7.730;2022-09-01T08:43:17;101395.34;;;21.40;60.88
47530;BME280;33272;51.922;7.730;2022-09-01T08:45:51;101394.13;;;21.52;61.04
47530;BME280;33272;51.922;7.730;2022-09-01T08:48:24;101389.28;;;21.62;60.54
47530;BME280;33272;51.922;7.730;2022-09-01T08:51:00;101400.78;;;21.67;60.04
47530;BME280;33272;51.922;7.730;2022-09-01T08:53:35;101393.97;;;21.70;60.00
47530;BME280;33272;51.922;7.730;2022-09-01T08:56:09;101397.06;;;21.83;60.04
47530;BME280;33272;51.922;7.730;2022-09-01T08:58:38;101388.72;;;21.91;59.78
47530;BME280;33272;51.922;7.730;2022-09-01T09:01:14;101395.06;;;21.98;59.01
47530;BME280;33272;51.922;7.730;2022-09-01T09:03:59;101398.88;;;22.08;59.36
47530;BME280;33272;51.922;7.730;2022-09-01T09:06:36;101394.88;;;22.16;58.68
47530;BME280;33272;51.922;7.730;2022-09-01T09:09:09;101402.75;;;22.17;58.42
47530;BME280;33272;51.922;7.730;2022-09-01T09:12:02;101395.81;;;22.18;58.00
47530;BME280;33272;51.922;7.730;2022-09-01T09:14:51;101394.22;;;22.21;57.29
47530;BME280;33272;51.922;7.730;2022-09-01T09:17:28;101391.22;;;22.35;57.64
47530;BME280;33272;51.922;7.730;2022-09-01T09:19:56;101388.06;;;22.43;57.00
47530;BME280;33272;51.922;7.730;2022-09-01T09:22:24;101391.78;;;22.50;56.51
47530;BME280;33272;51.922;7.730;2022-09-01T09:24:56;101385.16;;;22.60;56.41
47530;BME280;33272;51.922;7.730;2022-09-01T09:27:27;101382.16;;;22.73;56.65
47530;BME280;33272;51.922;7.730;2022-09-01T09:29:59;101385.00;;;22.79;55.53
47530;BME280;33272;51.922;7.730;2022-09-01T09:32:44;101372.97;;;22.84;55.21
47530;BME280;33272;51.922;7.730;2022-09-01T09:35:25;101377.56;;;22.91;54.99
47530;BME280;33272;51.922;7.730;2022-09-01T09:37:54;101374.63;;;23.06;55.58
47530;BME280;33272;51.922;7.730;2022-09-01T09:40:24;101379.47;;;23.21;54.79
47530;BME280;33272;51.922;7.730;2022-09-01T09:43:10;101371.97;;;23.32;52.86
47530;BME280;33272;51.922;7.730;2022-09-01T09:45:42;101375.81;;;23.43;54.36
47530;BME280;33272;51.922;7.730;2022-09-01T09:48:27;101379.59;;;23.53;52.83
47530;BME280;33272;51.922;7.730;2022-09-01T09:50:55;101379.56;;;23.78;53.30
47530;BME280;33272;51.922;7.730;2022-09-01T09:53:28;101367.63;;;23.87;53.71
47530;BME280;33272;51.922;7.730;2022-09-01T09:56:08;101363.44;;;23.93;53.45
47530;BME280;33272;51.922;7.730;2022-09-01T09:58:45;101377.03;;;24.12;53.11
47530;BME280;33272;51.922;7.730;2022-09-01T10:01:28;101365.25;;;24.26;51.72
47530;BME280;33272;51.922;7.730;2022-09-01T10:03:58;101367.34;;;24.39;51.74
47530;BME280;33272;51.922;7.730;2022-09-01T10:06:32;101363.69;;;24.33;49.51
47530;BME280;33272;51.922;7.730;2022-09-01T10:09:03;101364.13;;;24.18;50.61
47530;BME280;33272;51.922;7.730;2022-09-01T10:11:36;101352.25;;;23.99;50.27
47530;BME280;33272;51.922;7.730;2022-09-01T10:14:06;101353.88;;;23.94;51.21
47530;BME280;33272;51.922;7.730;2022-09-01T10:16:38;101354.63;;;23.90;51.09
47530;BME280;33272;51.922;7.730;2022-09-01T10:19:10;101349.22;;;23.84;51.14
47530;BME280;33272;51.922;7.730;2022-09-01T10:21:39;101344.72;;;23.79;50.98
47530;BME280;33272;51.922;7.730;2022-09-01T10:24:18;101344.94;;;23.58;50.00
47530;BME280;33272;51.922;7.730;2022-09-01T10:26:51;101344.69;;;23.51;50.15
47530;BME280;33272;51.922;7.730;2022-09-01T10:29:23;101337.63;;;23.48;50.90
47530;BME280;33272;51.922;7.730;2022-09-01T10:31:55;101335.97;;;23.50;50.89
47530;BME280;33272;51.922;7.730;2022-09-01T10:34:22;101339.56;;;23.54;50.70
47530;BME280;33272;51.922;7.730;2022-09-01T10:36:49;101334.44;;;23.57;50.35
47530;BME280;33272;51.922;7.730;2022-09-01T10:39:18;101343.22;;;23.59;50.53
47530;BME280;33272;51.922;7.730;2022-09-01T10:41:55;101333.44;;;23.53;50.35
47530;BME280;33272;51.922;7.730;2022-09-01T10:44:24;101330.91;;;23.55;50.22
47530;BME280;33272;51.922;7.730;2022-09-01T10:47:01;101334.00;;;23.43;50.27
47530;BME280;33272;51.922;7.730;2022-09-01T10:50:00;101324.75;;;23.26;49.61
47530;BME280;33272;51.922;7.730;2022-09-01T10:53:06;101320.81;;;23.11;50.18
47530;BME280;33272;51.922;7.730;2022-09-01T10:55:44;101319.09;;;23.12;50.65
47530;BME280;33272;51.922;7.730;2022-09-01T10:58:45;101317.47;;;23.16;49.75
47530;BME280;33272;51.922;7.730;2022-09-01T11:01:16;101311.69;;;23.26;50.06
47530;BME280;33272;51.922;7.730;2022-09-01T11:03:55;101324.53;;;23.47;47.45
47530;BME280;33272;51.922;7.730;2022-09-01T11:06:57;101319.97;;;23.68;48.24
47530;BME280;33272;51.922;7.730;2022-09-01T11:09:33;101312.81;;;23.91;48.93
47530;BME280;33272;51.922;7.730;2022-09-01T11:12:42;101308.88;;;24.05;47.33
47530;BME280;33272;51.922;7.730;2022-09-01T11:15:34;101309.34;;;24.22;46.87
47530;BME280;33272;51.922;7.730;2022-09-01T11:18:02;101321.88;;;24.34;47.06
47530;BME280;33272;51.922;7.730;2022-09-01T11:20:36;101316.75;;;24.39;47.00
47530;BME280;33272;51.922;7.730;2022-09-01T11:23:09;101317.63;;;24.38;46.44
47530;BME280;33272;51.922;7.730;2022-09-01T11:25:41;101304.53;;;24.38;46.93
47530;BME280;33272;51.922;7.730;2022-09-01T11:28:41;101310.84;;;24.14;44.00
47530;BME280;33272;51.922;7.730;2022-09-01T11:31:26;101305.16;;;24.29;45.98
47530;BME280;33272;51.922;7.730;2022-09-01T11:34:18;101303.78;;;24.42;45.58
47530;BME280;33272;51.922;7.730;2022-09-01T11:36:56;101314.44;;;24.49;44.78
47530;BME280;33272;51.922;7.730;2022-09-01T11:39:40;101309.28;;;24.51;43.40
47530;BME280;33272;51.922;7.730;2022-09-01T11:42:18;101309.78;;;24.71;43.65
47530;BME280;33272;51.922;7.730;2022-09-01T11:44:51;101307.13;;;25.04;44.85
47530;BME280;33272;51.922;7.730;2022-09-01T11:47:23;101303.47;;;25.34;44.88
47530;BME280;33272;51.922;7.730;2022-09-01T11:49:55;101311.94;;;25.60;43.99
47530;BME280;33272;51.922;7.730;2022-09-01T11:52:27;101309.59;;;25.75;43.59
47530;BME280;33272;51.922;7.730;2022-09-01T11:54:56;101320.31;;;25.84;43.42
47530;BME280;33272;51.922;7.730;2022-09-01T11:57:30;101305.16;;;25.71;42.02
47530;BME280;33272;51.922;7.730;2022-09-01T12:00:00;101312.94;;;25.68;42.08
47530;BME280;33272;51.922;7.730;2022-09-01T12:02:30;101304.69;;;25.50;42.32
47530;BME280;33272;51.922;7.730;2022-09-01T12:05:00;101300.16;;;25.41;42.07
47530;BME280;33272;51.922;7.730;2022-09-01T12:07:38;101295.16;;;25.53;39.56
47530;BME280;33272;51.922;7.730;2022-09-01T12:10:16;101302.41;;;25.65;40.20
47530;BME280;33272;51.922;7.730;2022-09-01T12:12:46;101294.13;;;25.86;41.22
47530;BME280;33272;51.922;7.730;2022-09-01T12:15:20;101291.19;;;26.15;40.89
47530;BME280;33272;51.922;7.730;2022-09-01T12:17:47;101292.56;;;26.41;40.19
47530;BME280;33272;51.922;7.730;2022-09-01T12:20:25;101288.75;;;26.71;38.19
47530;BME280;33272;51.922;7.730;2022-09-01T12:22:54;101288.31;;;26.99;39.60
47530;BME280;33272;51.922;7.730;2022-09-01T12:25:24;101283.97;;;27.01;38.04
47530;BME280;33272;51.922;7.730;2022-09-01T12:27:52;101291.69;;;26.89;38.74
47530;BME280;33272;51.922;7.730;2022-09-01T12:30:20;101295.34;;;26.99;39.07
47530;BME280;33272;51.922;7.730;2022-09-01T12:32:48;101286.44;;;26.89;38.44
47530;BME280;33272;51.922;7.730;2022-09-01T12:35:21;101284.53;;;26.80;35.62
47530;BME280;33272;51.922;7.730;2022-09-01T12:37:49;101282.63;;;26.73;38.23
47530;BME280;33272;51.922;7.730;2022-09-01T12:40:30;101286.84;;;26.64;36.78
47530;BME280;33272;51.922;7.730;2022-09-01T12:42:58;101278.09;;;26.62;38.14
47530;BME280;33272;51.922;7.730;2022-09-01T12:45:41;101276.25;;;26.57;37.96
47530;BME280;33272;51.922;7.730;2022-09-01T12:48:24;101280.03;;;26.75;37.29
47530;BME280;33272;51.922;7.730;2022-09-01T12:50:51;101274.44;;;27.08;37.90
47530;BME280;33272;51.922;7.730;2022-09-01T12:53:23;101272.19;;;27.31;37.71
47530;BME280;33272;51.922;7.730;2022-09-01T12:56:05;101273.28;;;27.48;36.50
47530;BME280;33272;51.922;7.730;2022-09-01T12:58:32;101269.31;;;27.78;37.27
47530;BME280;33272;51.922;7.730;2022-09-01T13:01:03;101269.59;;;28.04;36.73
47530;BME280;33272;51.922;7.730;2022-09-01T13:03:34;101263.56;;;28.14;36.10
47530;BME280;33272;51.922;7.730;2022-09-01T13:06:02;101258.16;;;28.01;35.94
47530;BME280;33272;51.922;7.730;2022-09-01T13:08:31;101258.91;;;27.89;35.75
47530;BME280;33272;51.922;7.730;2022-09-01T13:11:05;101258.00;;;27.85;36.02
47530;BME280;33272;51.922;7.730;2022-09-01T13:13:32;101250.03;;;27.79;36.05